EJU78NK LFPO-EGHI
Flight info
| Callsign | EJU78NK |
|---|---|
| Flight time | 0h 51m |
| Altitude | 32000 |
| Route | OPALE DCT KESAX DCT KUNAV/N0417F260 N20 ELDAX |
| Aircraft | A320/M-SDE3FGHIRWY/LB1 |
Departure
| Time | 2026-05-08 20:50 |
|---|---|
| Airport | Paris-Orly Airport (LFPO) |
Arrival
| Time | 2026-05-08 21:41 |
|---|---|
| Airport | Southampton Airport (EGHI) |
| Time | Latitude | Longitude | Altitude | Speed | Heading |
|---|---|---|---|---|---|
| 2026-05-08 20:24 | 48.73176 | 2.36145 | 293 ft | 0 kts | 160° |
| 2026-05-08 20:35 | 48.73187 | 2.36139 | 297 ft | 2 kts | 160° |
| 2026-05-08 20:35 | 48.73203 | 2.36130 | 299 ft | 2 kts | 160° |
| 2026-05-08 20:35 | 48.73219 | 2.36121 | 294 ft | 2 kts | 181° |
| 2026-05-08 20:35 | 48.73236 | 2.36122 | 297 ft | 2 kts | 185° |
| 2026-05-08 20:36 | 48.73253 | 2.36124 | 297 ft | 2 kts | 206° |
| 2026-05-08 20:36 | 48.73261 | 2.36131 | 296 ft | 0 kts | 227° |
| 2026-05-08 20:37 | 48.73261 | 2.36126 | 296 ft | 2 kts | 254° |
| 2026-05-08 20:38 | 48.73310 | 2.36073 | 295 ft | 11 kts | 339° |
| 2026-05-08 20:38 | 48.73294 | 2.35912 | 293 ft | 23 kts | 242° |
| 2026-05-08 20:38 | 48.73215 | 2.35696 | 296 ft | 24 kts | 239° |
| 2026-05-08 20:38 | 48.73097 | 2.35570 | 296 ft | 14 kts | 232° |
| 2026-05-08 20:39 | 48.73035 | 2.35418 | 296 ft | 28 kts | 220° |
| 2026-05-08 20:39 | 48.72924 | 2.35353 | 295 ft | 8 kts | 196° |
| 2026-05-08 20:39 | 48.72842 | 2.35305 | 295 ft | 18 kts | 201° |
| 2026-05-08 20:39 | 48.72716 | 2.35258 | 294 ft | 24 kts | 172° |
| 2026-05-08 20:40 | 48.72539 | 2.35322 | 294 ft | 27 kts | 165° |
| 2026-05-08 20:40 | 48.72366 | 2.35425 | 296 ft | 22 kts | 142° |
| 2026-05-08 20:40 | 48.72313 | 2.35521 | 296 ft | 11 kts | 124° |
| 2026-05-08 20:40 | 48.72311 | 2.35526 | 295 ft | 0 kts | 124° |
| 2026-05-08 20:41 | 48.72266 | 2.35580 | 296 ft | 17 kts | 151° |
| 2026-05-08 20:41 | 48.72174 | 2.35622 | 295 ft | 8 kts | 166° |
| 2026-05-08 20:41 | 48.72138 | 2.35637 | 296 ft | 0 kts | 164° |
| 2026-05-08 20:42 | 48.72131 | 2.35640 | 295 ft | 3 kts | 164° |
| 2026-05-08 20:42 | 48.72116 | 2.35647 | 293 ft | 2 kts | 162° |
| 2026-05-08 20:43 | 48.72097 | 2.35658 | 296 ft | 11 kts | 155° |
| 2026-05-08 20:43 | 48.72049 | 2.35718 | 295 ft | 9 kts | 130° |
| 2026-05-08 20:43 | 48.72017 | 2.35792 | 298 ft | 10 kts | 122° |
| 2026-05-08 20:43 | 48.71963 | 2.35938 | 296 ft | 17 kts | 102° |
| 2026-05-08 20:44 | 48.71981 | 2.36078 | 294 ft | 12 kts | 72° |
| 2026-05-08 20:44 | 48.71984 | 2.36093 | 293 ft | 0 kts | 75° |
| 2026-05-08 20:49 | 48.71985 | 2.36098 | 293 ft | 4 kts | 75° |
| 2026-05-08 20:49 | 48.72043 | 2.36418 | 298 ft | 68 kts | 74° |
| 2026-05-08 20:50 | 48.72233 | 2.37427 | 297 ft | 128 kts | 74° |
| 2026-05-08 20:50 | 48.72517 | 2.38935 | 487 ft | 157 kts | 75° |
| 2026-05-08 20:50 | 48.72773 | 2.40557 | 1205 ft | 160 kts | 75° |
| 2026-05-08 20:50 | 48.73062 | 2.42200 | 1860 ft | 167 kts | 75° |
| 2026-05-08 20:51 | 48.73400 | 2.43994 | 2202 ft | 188 kts | 74° |
| 2026-05-08 20:51 | 48.73786 | 2.46035 | 2560 ft | 214 kts | 74° |
| 2026-05-08 20:51 | 48.74101 | 2.48363 | 3008 ft | 238 kts | 83° |
| 2026-05-08 20:51 | 48.74251 | 2.50958 | 3633 ft | 254 kts | 87° |
| 2026-05-08 20:52 | 48.74336 | 2.53652 | 4535 ft | 259 kts | 88° |
| 2026-05-08 20:52 | 48.74293 | 2.56394 | 5414 ft | 264 kts | 104° |
| 2026-05-08 20:52 | 48.73394 | 2.58803 | 6182 ft | 269 kts | 140° |
| 2026-05-08 20:52 | 48.71731 | 2.60030 | 6995 ft | 272 kts | 174° |
| 2026-05-08 20:53 | 48.69883 | 2.59619 | 7799 ft | 273 kts | 208° |
| 2026-05-08 20:53 | 48.68503 | 2.57703 | 8637 ft | 274 kts | 241° |
| 2026-05-08 20:53 | 48.67912 | 2.54961 | 9546 ft | 276 kts | 261° |
| 2026-05-08 20:53 | 48.67695 | 2.52056 | 10378 ft | 282 kts | 264° |
| 2026-05-08 20:54 | 48.67516 | 2.48976 | 10676 ft | 306 kts | 264° |
| 2026-05-08 20:54 | 48.67325 | 2.45646 | 11002 ft | 326 kts | 264° |
| 2026-05-08 20:54 | 48.67022 | 2.42208 | 11631 ft | 333 kts | 259° |
| 2026-05-08 20:54 | 48.66363 | 2.38834 | 12341 ft | 338 kts | 246° |
| 2026-05-08 20:55 | 48.65463 | 2.35523 | 13062 ft | 342 kts | 253° |
| 2026-05-08 20:55 | 48.65072 | 2.31955 | 13766 ft | 348 kts | 268° |
| 2026-05-08 20:55 | 48.65342 | 2.28302 | 14422 ft | 352 kts | 284° |
| 2026-05-08 20:55 | 48.66240 | 2.24841 | 15107 ft | 356 kts | 297° |
| 2026-05-08 20:56 | 48.67466 | 2.21571 | 15803 ft | 358 kts | 298° |
| 2026-05-08 20:56 | 48.68690 | 2.18269 | 16493 ft | 361 kts | 297° |
| 2026-05-08 20:56 | 48.69907 | 2.14941 | 17163 ft | 363 kts | 297° |
| 2026-05-08 20:56 | 48.71129 | 2.11583 | 17840 ft | 366 kts | 297° |
| 2026-05-08 20:57 | 48.72471 | 2.08290 | 18463 ft | 370 kts | 306° |
| 2026-05-08 20:57 | 48.74311 | 2.05527 | 18990 ft | 376 kts | 321° |
| 2026-05-08 20:57 | 48.76603 | 2.03571 | 19511 ft | 383 kts | 337° |
| 2026-05-08 20:57 | 48.79201 | 2.02616 | 20031 ft | 389 kts | 353° |
| 2026-05-08 20:58 | 48.81922 | 2.02745 | 20557 ft | 394 kts | 6° |
| 2026-05-08 20:58 | 48.84651 | 2.03299 | 21101 ft | 396 kts | 6° |
| 2026-05-08 20:58 | 48.87386 | 2.03854 | 21635 ft | 398 kts | 6° |
| 2026-05-08 20:58 | 48.90107 | 2.04407 | 22169 ft | 400 kts | 6° |
| 2026-05-08 20:59 | 48.92877 | 2.04968 | 22695 ft | 402 kts | 6° |
| 2026-05-08 20:59 | 48.95657 | 2.05526 | 23206 ft | 404 kts | 6° |
| 2026-05-08 20:59 | 48.98454 | 2.06090 | 23707 ft | 407 kts | 7° |
| 2026-05-08 20:59 | 49.01267 | 2.06659 | 24121 ft | 409 kts | 7° |
| 2026-05-08 21:00 | 49.04094 | 2.07233 | 24508 ft | 412 kts | 7° |
| 2026-05-08 21:00 | 49.06947 | 2.07815 | 24915 ft | 414 kts | 6° |
| 2026-05-08 21:00 | 49.09801 | 2.08403 | 25335 ft | 415 kts | 6° |
| 2026-05-08 21:00 | 49.12667 | 2.08990 | 25729 ft | 417 kts | 6° |
| 2026-05-08 21:01 | 49.15553 | 2.09575 | 26112 ft | 419 kts | 6° |
| 2026-05-08 21:01 | 49.18455 | 2.10159 | 26480 ft | 422 kts | 6° |
| 2026-05-08 21:01 | 49.21371 | 2.10749 | 26846 ft | 424 kts | 6° |
| 2026-05-08 21:01 | 49.24302 | 2.11349 | 27212 ft | 426 kts | 6° |
| 2026-05-08 21:02 | 49.27256 | 2.11956 | 27574 ft | 429 kts | 6° |
| 2026-05-08 21:02 | 49.30208 | 2.12562 | 27938 ft | 431 kts | 6° |
| 2026-05-08 21:02 | 49.33188 | 2.13170 | 28297 ft | 433 kts | 6° |
| 2026-05-08 21:02 | 49.36190 | 2.13772 | 28642 ft | 435 kts | 4° |
| 2026-05-08 21:03 | 49.39203 | 2.13723 | 28966 ft | 434 kts | 349° |
| 2026-05-08 21:03 | 49.42086 | 2.12432 | 29267 ft | 433 kts | 335° |
| 2026-05-08 21:03 | 49.44847 | 2.10568 | 29581 ft | 434 kts | 335° |
| 2026-05-08 21:03 | 49.47620 | 2.08673 | 29896 ft | 436 kts | 334° |
| 2026-05-08 21:04 | 49.50403 | 2.06760 | 30196 ft | 438 kts | 334° |
| 2026-05-08 21:04 | 49.53195 | 2.04836 | 30513 ft | 439 kts | 334° |
| 2026-05-08 21:04 | 49.55987 | 2.02912 | 30798 ft | 440 kts | 334° |
| 2026-05-08 21:04 | 49.58786 | 2.00984 | 31125 ft | 440 kts | 334° |
| 2026-05-08 21:05 | 49.61538 | 1.99088 | 31494 ft | 438 kts | 334° |
| 2026-05-08 21:05 | 49.64323 | 1.97167 | 31861 ft | 437 kts | 334° |
| 2026-05-08 21:05 | 49.67104 | 1.95243 | 32061 ft | 437 kts | 334° |
| 2026-05-08 21:06 | 49.72571 | 1.91459 | 32094 ft | 427 kts | 334° |
| 2026-05-08 21:06 | 49.77966 | 1.87736 | 32096 ft | 423 kts | 334° |
| 2026-05-08 21:07 | 49.83343 | 1.84009 | 32098 ft | 423 kts | 334° |
| 2026-05-08 21:07 | 49.88713 | 1.80270 | 32103 ft | 424 kts | 334° |
| 2026-05-08 21:08 | 49.94119 | 1.76503 | 32102 ft | 427 kts | 334° |
| 2026-05-08 21:08 | 49.99557 | 1.72711 | 32112 ft | 427 kts | 334° |
| 2026-05-08 21:09 | 50.04946 | 1.68919 | 32116 ft | 426 kts | 332° |
| 2026-05-08 21:09 | 50.09804 | 1.63748 | 32113 ft | 423 kts | 318° |
| 2026-05-08 21:10 | 50.14243 | 1.57709 | 31786 ft | 425 kts | 318° |
| 2026-05-08 21:10 | 50.16497 | 1.54640 | 30430 ft | 438 kts | 318° |
| 2026-05-08 21:10 | 50.18804 | 1.51491 | 29479 ft | 440 kts | 318° |
| 2026-05-08 21:10 | 50.20328 | 1.49414 | 28973 ft | 438 kts | 318° |
| 2026-05-08 21:11 | 50.22615 | 1.46302 | 28151 ft | 435 kts | 318° |
| 2026-05-08 21:11 | 50.24880 | 1.43221 | 27571 ft | 428 kts | 318° |
| 2026-05-08 21:11 | 50.27108 | 1.40190 | 26984 ft | 422 kts | 318° |
| 2026-05-08 21:11 | 50.29304 | 1.37193 | 26416 ft | 417 kts | 318° |
| 2026-05-08 21:12 | 50.31471 | 1.34218 | 25942 ft | 410 kts | 318° |
| 2026-05-08 21:12 | 50.33594 | 1.31293 | 25478 ft | 404 kts | 317° |
| 2026-05-08 21:12 | 50.35693 | 1.28403 | 25019 ft | 399 kts | 318° |
| 2026-05-08 21:12 | 50.37759 | 1.25564 | 24571 ft | 397 kts | 318° |
| 2026-05-08 21:13 | 50.39833 | 1.22712 | 24128 ft | 395 kts | 318° |
| 2026-05-08 21:13 | 50.41888 | 1.19875 | 23694 ft | 391 kts | 318° |
| 2026-05-08 21:13 | 50.43926 | 1.17052 | 23176 ft | 390 kts | 317° |
| 2026-05-08 21:13 | 50.45955 | 1.14246 | 22663 ft | 388 kts | 317° |
| 2026-05-08 21:14 | 50.47937 | 1.11393 | 22141 ft | 385 kts | 311° |
| 2026-05-08 21:14 | 50.49493 | 1.08065 | 21668 ft | 382 kts | 296° |
| 2026-05-08 21:14 | 50.50407 | 1.04185 | 21331 ft | 379 kts | 282° |
| 2026-05-08 21:14 | 50.51008 | 1.00156 | 20783 ft | 378 kts | 281° |
| 2026-05-08 21:15 | 50.51591 | 0.96126 | 20233 ft | 377 kts | 281° |
| 2026-05-08 21:15 | 50.52160 | 0.92108 | 19697 ft | 376 kts | 280° |
| 2026-05-08 21:15 | 50.52718 | 0.88106 | 19167 ft | 375 kts | 281° |
| 2026-05-08 21:15 | 50.53271 | 0.84111 | 18646 ft | 374 kts | 280° |
| 2026-05-08 21:16 | 50.53825 | 0.80122 | 18213 ft | 370 kts | 280° |
| 2026-05-08 21:16 | 50.54371 | 0.76198 | 18091 ft | 365 kts | 281° |
| 2026-05-08 21:16 | 50.54912 | 0.72298 | 18116 ft | 365 kts | 280° |
| 2026-05-08 21:16 | 50.55454 | 0.68392 | 18120 ft | 365 kts | 280° |
| 2026-05-08 21:17 | 50.55993 | 0.64494 | 18114 ft | 365 kts | 281° |
| 2026-05-08 21:17 | 50.56532 | 0.60578 | 17903 ft | 365 kts | 279° |
| 2026-05-08 21:17 | 50.57069 | 0.56689 | 17634 ft | 363 kts | 280° |
| 2026-05-08 21:17 | 50.57605 | 0.52818 | 17366 ft | 362 kts | 281° |
| 2026-05-08 21:18 | 50.58136 | 0.48956 | 17100 ft | 360 kts | 280° |
| 2026-05-08 21:18 | 50.58662 | 0.45112 | 16843 ft | 357 kts | 280° |
| 2026-05-08 21:18 | 50.59175 | 0.41358 | 16585 ft | 354 kts | 280° |
| 2026-05-08 21:18 | 50.59693 | 0.37534 | 16323 ft | 351 kts | 279° |
| 2026-05-08 21:19 | 50.60189 | 0.33848 | 16072 ft | 348 kts | 280° |
| 2026-05-08 21:19 | 50.60692 | 0.30113 | 15820 ft | 347 kts | 280° |
| 2026-05-08 21:19 | 50.61195 | 0.26395 | 15572 ft | 347 kts | 281° |
| 2026-05-08 21:19 | 50.61695 | 0.22701 | 15318 ft | 344 kts | 281° |
| 2026-05-08 21:20 | 50.62190 | 0.19013 | 15070 ft | 344 kts | 280° |
| 2026-05-08 21:20 | 50.62681 | 0.15335 | 14823 ft | 343 kts | 281° |
| 2026-05-08 21:20 | 50.63168 | 0.11664 | 14578 ft | 341 kts | 281° |
| 2026-05-08 21:20 | 50.63651 | 0.08024 | 14331 ft | 339 kts | 281° |
| 2026-05-08 21:21 | 50.64134 | 0.04391 | 14078 ft | 338 kts | 281° |
| 2026-05-08 21:21 | 50.64610 | 0.00782 | 13863 ft | 335 kts | 281° |
| 2026-05-08 21:21 | 50.65086 | -0.02803 | 13586 ft | 335 kts | 281° |
| 2026-05-08 21:21 | 50.65566 | -0.06403 | 13316 ft | 335 kts | 281° |
| 2026-05-08 21:22 | 50.66038 | -0.09961 | 13054 ft | 334 kts | 281° |
| 2026-05-08 21:22 | 50.66508 | -0.13542 | 12788 ft | 333 kts | 280° |
| 2026-05-08 21:22 | 50.66971 | -0.17109 | 12527 ft | 332 kts | 280° |
| 2026-05-08 21:22 | 50.67431 | -0.20668 | 12267 ft | 331 kts | 280° |
| 2026-05-08 21:23 | 50.67889 | -0.24218 | 12009 ft | 330 kts | 280° |
| 2026-05-08 21:23 | 50.68346 | -0.27758 | 11753 ft | 329 kts | 280° |
| 2026-05-08 21:23 | 50.68804 | -0.31284 | 11500 ft | 328 kts | 280° |
| 2026-05-08 21:23 | 50.69258 | -0.34799 | 11250 ft | 327 kts | 280° |
| 2026-05-08 21:24 | 50.69711 | -0.38309 | 11000 ft | 326 kts | 280° |
| 2026-05-08 21:24 | 50.70161 | -0.41801 | 10756 ft | 325 kts | 280° |
| 2026-05-08 21:24 | 50.70608 | -0.45286 | 10508 ft | 324 kts | 280° |
| 2026-05-08 21:24 | 50.71053 | -0.48766 | 10264 ft | 323 kts | 280° |
| 2026-05-08 21:25 | 50.71495 | -0.52225 | 10033 ft | 318 kts | 280° |
| 2026-05-08 21:25 | 50.71923 | -0.55575 | 9903 ft | 305 kts | 279° |
| 2026-05-08 21:25 | 50.72334 | -0.58799 | 9764 ft | 294 kts | 279° |
| 2026-05-08 21:26 | 50.72628 | -0.61101 | 9171 ft | 297 kts | 280° |
| 2026-05-08 21:26 | 50.72959 | -0.63748 | 8137 ft | 320 kts | 279° |
| 2026-05-08 21:26 | 50.73391 | -0.67227 | 7637 ft | 319 kts | 280° |
| 2026-05-08 21:27 | 50.73812 | -0.70590 | 7508 ft | 305 kts | 279° |
| 2026-05-08 21:27 | 50.74217 | -0.73807 | 7385 ft | 292 kts | 279° |
| 2026-05-08 21:27 | 50.74605 | -0.76883 | 7251 ft | 280 kts | 280° |
| 2026-05-08 21:27 | 50.74982 | -0.79888 | 7134 ft | 277 kts | 279° |
| 2026-05-08 21:28 | 50.75551 | -0.82733 | 7108 ft | 277 kts | 296° |
| 2026-05-08 21:28 | 50.76525 | -0.85371 | 7113 ft | 278 kts | 301° |
| 2026-05-08 21:28 | 50.77554 | -0.87965 | 7112 ft | 279 kts | 301° |
| 2026-05-08 21:28 | 50.78596 | -0.90556 | 7115 ft | 279 kts | 301° |
| 2026-05-08 21:29 | 50.79154 | -0.91945 | 7111 ft | 279 kts | 301° |
| 2026-05-08 21:29 | 50.80193 | -0.94535 | 7116 ft | 279 kts | 301° |
| 2026-05-08 21:29 | 50.81235 | -0.97127 | 7116 ft | 279 kts | 301° |
| 2026-05-08 21:29 | 50.82278 | -0.99721 | 7118 ft | 279 kts | 301° |
| 2026-05-08 21:30 | 50.83322 | -1.02317 | 7117 ft | 279 kts | 301° |
| 2026-05-08 21:30 | 50.84365 | -1.04910 | 7118 ft | 279 kts | 301° |
| 2026-05-08 21:30 | 50.85406 | -1.07500 | 6977 ft | 277 kts | 301° |
| 2026-05-08 21:30 | 50.86438 | -1.10076 | 6557 ft | 277 kts | 301° |
| 2026-05-08 21:31 | 50.87464 | -1.12643 | 6134 ft | 276 kts | 301° |
| 2026-05-08 21:31 | 50.88478 | -1.15202 | 6003 ft | 274 kts | 301° |
| 2026-05-08 21:31 | 50.89492 | -1.17772 | 6009 ft | 276 kts | 301° |
| 2026-05-08 21:31 | 50.90508 | -1.20349 | 6009 ft | 276 kts | 301° |
| 2026-05-08 21:32 | 50.91525 | -1.22929 | 6011 ft | 276 kts | 301° |
| 2026-05-08 21:32 | 50.92540 | -1.25511 | 6010 ft | 276 kts | 301° |
| 2026-05-08 21:32 | 50.93504 | -1.28135 | 6008 ft | 275 kts | 291° |
| 2026-05-08 21:32 | 50.93812 | -1.31075 | 6010 ft | 272 kts | 263° |
| 2026-05-08 21:33 | 50.93219 | -1.33870 | 6009 ft | 268 kts | 234° |
| 2026-05-08 21:33 | 50.91878 | -1.35851 | 6011 ft | 266 kts | 206° |
| 2026-05-08 21:33 | 50.90117 | -1.36673 | 5999 ft | 264 kts | 188° |
| 2026-05-08 21:33 | 50.88300 | -1.37060 | 5641 ft | 262 kts | 186° |
| 2026-05-08 21:34 | 50.86533 | -1.37396 | 5505 ft | 249 kts | 186° |
| 2026-05-08 21:34 | 50.84874 | -1.37710 | 5381 ft | 238 kts | 186° |
| 2026-05-08 21:34 | 50.83271 | -1.38023 | 5253 ft | 227 kts | 186° |
| 2026-05-08 21:34 | 50.81735 | -1.38322 | 5112 ft | 219 kts | 186° |
| 2026-05-08 21:35 | 50.80250 | -1.38616 | 4981 ft | 211 kts | 186° |
| 2026-05-08 21:35 | 50.78814 | -1.38906 | 4855 ft | 205 kts | 186° |
| 2026-05-08 21:35 | 50.77421 | -1.39189 | 4708 ft | 199 kts | 186° |
| 2026-05-08 21:35 | 50.76066 | -1.39467 | 4552 ft | 195 kts | 186° |
| 2026-05-08 21:36 | 50.74734 | -1.39839 | 4329 ft | 195 kts | 197° |
| 2026-05-08 21:36 | 50.73654 | -1.41109 | 4125 ft | 198 kts | 236° |
| 2026-05-08 21:36 | 50.73297 | -1.43194 | 3896 ft | 202 kts | 274° |
| 2026-05-08 21:36 | 50.73826 | -1.45225 | 3657 ft | 204 kts | 313° |
| 2026-05-08 21:37 | 50.75022 | -1.46334 | 3429 ft | 201 kts | 352° |
| 2026-05-08 21:37 | 50.76391 | -1.46224 | 3199 ft | 197 kts | 21° |
| 2026-05-08 21:37 | 50.77668 | -1.45458 | 2973 ft | 197 kts | 24° |
| 2026-05-08 21:37 | 50.78945 | -1.44675 | 2772 ft | 196 kts | 24° |
| 2026-05-08 21:38 | 50.80220 | -1.43895 | 2592 ft | 195 kts | 24° |
| 2026-05-08 21:38 | 50.81498 | -1.43158 | 2510 ft | 195 kts | 23° |
| 2026-05-08 21:38 | 50.82781 | -1.42447 | 2465 ft | 197 kts | 22° |
| 2026-05-08 21:38 | 50.84088 | -1.41725 | 2178 ft | 201 kts | 23° |
| 2026-05-08 21:39 | 50.85379 | -1.41015 | 1920 ft | 194 kts | 23° |
| 2026-05-08 21:39 | 50.86629 | -1.40334 | 1648 ft | 181 kts | 23° |
| 2026-05-08 21:39 | 50.87783 | -1.39700 | 1393 ft | 170 kts | 22° |
| 2026-05-08 21:39 | 50.88858 | -1.39101 | 1159 ft | 162 kts | 22° |
| 2026-05-08 21:40 | 50.89869 | -1.38513 | 957 ft | 147 kts | 22° |
| 2026-05-08 21:40 | 50.90802 | -1.37965 | 732 ft | 140 kts | 18° |
| 2026-05-08 21:40 | 50.91714 | -1.37537 | 615 ft | 136 kts | 20° |
| 2026-05-08 21:41 | 50.93489 | -1.36537 | 266 ft | 135 kts | 20° |
| 2026-05-08 21:41 | 50.94378 | -1.36045 | 62 ft | 135 kts | 20° |
| 2026-05-08 21:41 | 50.95169 | -1.35603 | 40 ft | 93 kts | 19° |
| 2026-05-08 21:41 | 50.95570 | -1.35381 | 44 ft | 48 kts | 19° |
| 2026-05-08 21:42 | 50.95837 | -1.35251 | 43 ft | 13 kts | 351° |
| 2026-05-08 21:42 | 50.95855 | -1.35236 | 43 ft | 9 kts | 122° |
| 2026-05-08 21:42 | 50.95820 | -1.35233 | 40 ft | 6 kts | 200° |
| 2026-05-08 21:42 | 50.95765 | -1.35267 | 43 ft | 10 kts | 201° |
| 2026-05-08 21:43 | 50.95697 | -1.35306 | 44 ft | 15 kts | 200° |
| 2026-05-08 21:43 | 50.95584 | -1.35369 | 44 ft | 18 kts | 199° |
| 2026-05-08 21:43 | 50.95454 | -1.35442 | 40 ft | 21 kts | 199° |
| 2026-05-08 21:43 | 50.95304 | -1.35526 | 40 ft | 24 kts | 198° |
| 2026-05-08 21:44 | 50.95144 | -1.35615 | 39 ft | 22 kts | 199° |
| 2026-05-08 21:44 | 50.95023 | -1.35703 | 39 ft | 13 kts | 243° |
| 2026-05-08 21:44 | 50.95043 | -1.35826 | 39 ft | 11 kts | 289° |
| 2026-05-08 21:44 | 50.95051 | -1.35865 | 39 ft | 0 kts | 288° |
| 2026-05-08 21:45 | 50.95053 | -1.35882 | 39 ft | 2 kts | 276° |
| 2026-05-08 21:45 | 50.95023 | -1.35938 | 39 ft | 9 kts | 200° |
| 2026-05-08 21:45 | 50.94943 | -1.35983 | 39 ft | 14 kts | 199° |
| 2026-05-08 21:46 | 50.94901 | -1.36081 | 39 ft | 12 kts | 282° |
| 2026-05-08 21:46 | 50.94928 | -1.36196 | 39 ft | 10 kts | 302° |
| 2026-05-08 21:46 | 50.94965 | -1.36188 | 37 ft | 5 kts | 17° |
| 2026-05-08 21:46 | 50.94986 | -1.36178 | 38 ft | 0 kts | 20° |